sensor_id;sensor_type;location;lat;lon;timestamp;P1;durP1;ratioP1;P2;durP2;ratioP2
27558;SDS011;15002;52.028;5.670;2023-07-13T00:02:09;8.73;;;2.20;;
27558;SDS011;15002;52.028;5.670;2023-07-13T00:04:35;7.30;;;2.30;;
27558;SDS011;15002;52.028;5.670;2023-07-13T00:07:01;6.82;;;1.95;;
27558;SDS011;15002;52.028;5.670;2023-07-13T00:09:27;6.88;;;1.90;;
27558;SDS011;15002;52.028;5.670;2023-07-13T00:11:54;7.13;;;2.25;;
27558;SDS011;15002;52.028;5.670;2023-07-13T00:14:22;4.65;;;1.88;;
27558;SDS011;15002;52.028;5.670;2023-07-13T00:16:48;4.20;;;2.00;;
27558;SDS011;15002;52.028;5.670;2023-07-13T00:19:14;4.38;;;1.95;;
27558;SDS011;15002;52.028;5.670;2023-07-13T00:21:40;7.40;;;2.28;;
27558;SDS011;15002;52.028;5.670;2023-07-13T00:24:07;7.40;;;2.00;;
27558;SDS011;15002;52.028;5.670;2023-07-13T00:26:37;6.05;;;1.92;;
27558;SDS011;15002;52.028;5.670;2023-07-13T00:29:03;6.05;;;2.50;;
27558;SDS011;15002;52.028;5.670;2023-07-13T00:31:34;6.77;;;2.07;;
27558;SDS011;15002;52.028;5.670;2023-07-13T00:34:01;6.80;;;2.20;;
27558;SDS011;15002;52.028;5.670;2023-07-13T00:36:27;6.22;;;1.95;;
27558;SDS011;15002;52.028;5.670;2023-07-13T00:38:52;8.30;;;2.47;;
27558;SDS011;15002;52.028;5.670;2023-07-13T00:41:18;6.35;;;2.13;;
27558;SDS011;15002;52.028;5.670;2023-07-13T00:43:44;5.32;;;2.20;;
27558;SDS011;15002;52.028;5.670;2023-07-13T00:46:15;6.10;;;2.10;;
27558;SDS011;15002;52.028;5.670;2023-07-13T00:48:41;8.65;;;2.88;;
27558;SDS011;15002;52.028;5.670;2023-07-13T00:51:10;8.55;;;2.20;;
27558;SDS011;15002;52.028;5.670;2023-07-13T00:53:37;5.80;;;2.20;;
27558;SDS011;15002;52.028;5.670;2023-07-13T00:56:04;5.78;;;2.10;;
27558;SDS011;15002;52.028;5.670;2023-07-13T00:58:30;6.95;;;2.22;;
27558;SDS011;15002;52.028;5.670;2023-07-13T01:00:56;6.00;;;2.10;;
27558;SDS011;15002;52.028;5.670;2023-07-13T01:03:21;4.78;;;2.00;;
27558;SDS011;15002;52.028;5.670;2023-07-13T01:05:48;5.88;;;1.75;;
27558;SDS011;15002;52.028;5.670;2023-07-13T01:08:15;6.57;;;2.25;;
27558;SDS011;15002;52.028;5.670;2023-07-13T01:10:42;12.77;;;2.30;;
27558;SDS011;15002;52.028;5.670;2023-07-13T01:13:19;6.55;;;1.83;;
27558;SDS011;15002;52.028;5.670;2023-07-13T01:15:46;8.77;;;2.28;;
27558;SDS011;15002;52.028;5.670;2023-07-13T01:18:18;6.70;;;2.63;;
27558;SDS011;15002;52.028;5.670;2023-07-13T01:20:53;5.53;;;2.17;;
27558;SDS011;15002;52.028;5.670;2023-07-13T01:23:21;7.05;;;2.17;;
27558;SDS011;15002;52.028;5.670;2023-07-13T01:25:47;7.30;;;2.33;;
27558;SDS011;15002;52.028;5.670;2023-07-13T01:28:12;7.70;;;2.58;;
27558;SDS011;15002;52.028;5.670;2023-07-13T01:30:38;4.93;;;1.90;;
27558;SDS011;15002;52.028;5.670;2023-07-13T01:33:08;10.80;;;2.22;;
27558;SDS011;15002;52.028;5.670;2023-07-13T01:35:35;3.65;;;2.00;;
27558;SDS011;15002;52.028;5.670;2023-07-13T01:38:01;7.40;;;2.38;;
27558;SDS011;15002;52.028;5.670;2023-07-13T01:40:28;4.75;;;1.77;;
27558;SDS011;15002;52.028;5.670;2023-07-13T01:42:55;5.47;;;1.77;;
27558;SDS011;15002;52.028;5.670;2023-07-13T01:45:20;8.25;;;2.17;;
27558;SDS011;15002;52.028;5.670;2023-07-13T01:47:46;3.33;;;1.85;;
27558;SDS011;15002;52.028;5.670;2023-07-13T01:50:12;6.40;;;1.83;;
27558;SDS011;15002;52.028;5.670;2023-07-13T01:52:37;8.68;;;1.90;;
27558;SDS011;15002;52.028;5.670;2023-07-13T01:55:03;7.07;;;1.90;;
27558;SDS011;15002;52.028;5.670;2023-07-13T01:57:29;8.38;;;2.42;;
27558;SDS011;15002;52.028;5.670;2023-07-13T01:59:55;7.32;;;1.80;;
27558;SDS011;15002;52.028;5.670;2023-07-13T02:02:21;6.35;;;1.92;;
27558;SDS011;15002;52.028;5.670;2023-07-13T02:04:46;7.63;;;2.15;;
27558;SDS011;15002;52.028;5.670;2023-07-13T02:07:12;7.28;;;2.00;;
27558;SDS011;15002;52.028;5.670;2023-07-13T02:09:37;5.72;;;2.20;;
27558;SDS011;15002;52.028;5.670;2023-07-13T02:12:03;6.40;;;2.58;;
27558;SDS011;15002;52.028;5.670;2023-07-13T02:14:29;6.93;;;2.00;;
27558;SDS011;15002;52.028;5.670;2023-07-13T02:16:55;7.32;;;2.20;;
27558;SDS011;15002;52.028;5.670;2023-07-13T02:19:20;8.10;;;2.00;;
27558;SDS011;15002;52.028;5.670;2023-07-13T02:21:46;11.18;;;2.45;;
27558;SDS011;15002;52.028;5.670;2023-07-13T02:24:12;6.57;;;2.50;;
27558;SDS011;15002;52.028;5.670;2023-07-13T02:26:42;11.15;;;2.28;;
27558;SDS011;15002;52.028;5.670;2023-07-13T02:29:08;6.47;;;2.47;;
27558;SDS011;15002;52.028;5.670;2023-07-13T02:31:34;9.57;;;2.83;;
27558;SDS011;15002;52.028;5.670;2023-07-13T02:34:01;5.40;;;2.28;;
27558;SDS011;15002;52.028;5.670;2023-07-13T02:36:27;5.05;;;2.70;;
27558;SDS011;15002;52.028;5.670;2023-07-13T02:38:53;6.82;;;2.30;;
27558;SDS011;15002;52.028;5.670;2023-07-13T02:41:19;9.10;;;3.15;;
27558;SDS011;15002;52.028;5.670;2023-07-13T02:43:45;4.38;;;2.30;;
27558;SDS011;15002;52.028;5.670;2023-07-13T02:46:11;6.55;;;2.53;;
27558;SDS011;15002;52.028;5.670;2023-07-13T02:48:37;10.48;;;2.80;;
27558;SDS011;15002;52.028;5.670;2023-07-13T02:51:04;10.23;;;2.72;;
27558;SDS011;15002;52.028;5.670;2023-07-13T02:53:30;4.93;;;2.85;;
27558;SDS011;15002;52.028;5.670;2023-07-13T02:55:55;10.32;;;2.50;;
27558;SDS011;15002;52.028;5.670;2023-07-13T02:58:21;10.90;;;3.13;;
27558;SDS011;15002;52.028;5.670;2023-07-13T03:00:47;8.60;;;2.80;;
27558;SDS011;15002;52.028;5.670;2023-07-13T03:03:15;7.88;;;2.90;;
27558;SDS011;15002;52.028;5.670;2023-07-13T03:05:42;9.45;;;3.40;;
27558;SDS011;15002;52.028;5.670;2023-07-13T03:08:09;9.10;;;3.08;;
27558;SDS011;15002;52.028;5.670;2023-07-13T03:10:36;6.80;;;3.00;;
27558;SDS011;15002;52.028;5.670;2023-07-13T03:13:02;10.60;;;3.38;;
27558;SDS011;15002;52.028;5.670;2023-07-13T03:15:27;6.25;;;3.53;;
27558;SDS011;15002;52.028;5.670;2023-07-13T03:17:53;6.13;;;2.70;;
27558;SDS011;15002;52.028;5.670;2023-07-13T03:20:19;8.60;;;3.10;;
27558;SDS011;15002;52.028;5.670;2023-07-13T03:22:45;12.80;;;3.90;;
27558;SDS011;15002;52.028;5.670;2023-07-13T03:25:11;7.45;;;3.58;;
27558;SDS011;15002;52.028;5.670;2023-07-13T03:27:37;12.57;;;3.38;;
27558;SDS011;15002;52.028;5.670;2023-07-13T03:30:03;10.88;;;3.22;;
27558;SDS011;15002;52.028;5.670;2023-07-13T03:32:30;9.43;;;3.70;;
27558;SDS011;15002;52.028;5.670;2023-07-13T03:34:56;10.07;;;3.58;;
27558;SDS011;15002;52.028;5.670;2023-07-13T03:37:21;11.43;;;3.67;;
27558;SDS011;15002;52.028;5.670;2023-07-13T03:39:47;14.68;;;4.03;;
27558;SDS011;15002;52.028;5.670;2023-07-13T03:42:13;11.10;;;4.25;;
27558;SDS011;15002;52.028;5.670;2023-07-13T03:44:39;10.40;;;3.92;;
27558;SDS011;15002;52.028;5.670;2023-07-13T03:47:05;8.95;;;3.85;;
27558;SDS011;15002;52.028;5.670;2023-07-13T03:49:33;8.77;;;4.55;;
27558;SDS011;15002;52.028;5.670;2023-07-13T03:51:59;12.88;;;4.50;;
27558;SDS011;15002;52.028;5.670;2023-07-13T03:54:25;13.70;;;4.45;;
27558;SDS011;15002;52.028;5.670;2023-07-13T03:56:51;14.05;;;4.13;;
27558;SDS011;15002;52.028;5.670;2023-07-13T03:59:16;10.25;;;4.18;;
27558;SDS011;15002;52.028;5.670;2023-07-13T04:01:43;12.68;;;4.07;;
27558;SDS011;15002;52.028;5.670;2023-07-13T04:04:09;9.48;;;4.40;;
27558;SDS011;15002;52.028;5.670;2023-07-13T04:06:34;19.02;;;4.45;;
27558;SDS011;15002;52.028;5.670;2023-07-13T04:09:01;11.02;;;4.25;;
27558;SDS011;15002;52.028;5.670;2023-07-13T04:11:30;8.57;;;4.03;;
27558;SDS011;15002;52.028;5.670;2023-07-13T04:13:58;11.00;;;4.32;;
27558;SDS011;15002;52.028;5.670;2023-07-13T04:16:24;12.85;;;4.05;;
27558;SDS011;15002;52.028;5.670;2023-07-13T04:18:50;10.75;;;4.60;;
27558;SDS011;15002;52.028;5.670;2023-07-13T04:21:19;7.60;;;3.97;;
27558;SDS011;15002;52.028;5.670;2023-07-13T04:23:45;13.50;;;5.07;;
27558;SDS011;15002;52.028;5.670;2023-07-13T04:26:11;9.50;;;4.20;;
27558;SDS011;15002;52.028;5.670;2023-07-13T04:28:36;15.10;;;4.50;;
27558;SDS011;15002;52.028;5.670;2023-07-13T04:31:02;14.55;;;4.55;;
27558;SDS011;15002;52.028;5.670;2023-07-13T04:33:29;15.27;;;4.43;;
27558;SDS011;15002;52.028;5.670;2023-07-13T04:35:55;10.00;;;4.65;;
27558;SDS011;15002;52.028;5.670;2023-07-13T04:38:26;9.00;;;4.03;;
27558;SDS011;15002;52.028;5.670;2023-07-13T04:40:57;13.00;;;4.47;;
27558;SDS011;15002;52.028;5.670;2023-07-13T04:43:25;14.02;;;4.40;;
27558;SDS011;15002;52.028;5.670;2023-07-13T04:45:51;10.80;;;4.60;;
27558;SDS011;15002;52.028;5.670;2023-07-13T04:48:17;14.85;;;5.05;;
27558;SDS011;15002;52.028;5.670;2023-07-13T04:50:43;14.65;;;5.63;;
27558;SDS011;15002;52.028;5.670;2023-07-13T04:53:09;11.25;;;4.55;;
27558;SDS011;15002;52.028;5.670;2023-07-13T04:55:35;13.85;;;4.82;;
27558;SDS011;15002;52.028;5.670;2023-07-13T04:58:02;9.77;;;4.53;;
27558;SDS011;15002;52.028;5.670;2023-07-13T05:00:28;10.70;;;4.63;;
27558;SDS011;15002;52.028;5.670;2023-07-13T05:02:55;10.15;;;5.07;;
27558;SDS011;15002;52.028;5.670;2023-07-13T05:05:22;14.20;;;5.18;;
27558;SDS011;15002;52.028;5.670;2023-07-13T05:07:48;12.27;;;5.85;;
27558;SDS011;15002;52.028;5.670;2023-07-13T05:10:14;12.48;;;4.45;;
27558;SDS011;15002;52.028;5.670;2023-07-13T05:12:40;12.43;;;5.40;;
27558;SDS011;15002;52.028;5.670;2023-07-13T05:15:05;15.68;;;5.55;;
27558;SDS011;15002;52.028;5.670;2023-07-13T05:17:31;14.02;;;5.25;;
27558;SDS011;15002;52.028;5.670;2023-07-13T05:19:57;16.30;;;5.82;;
27558;SDS011;15002;52.028;5.670;2023-07-13T05:22:23;15.50;;;6.07;;
27558;SDS011;15002;52.028;5.670;2023-07-13T05:24:48;12.73;;;5.80;;
27558;SDS011;15002;52.028;5.670;2023-07-13T05:27:14;14.60;;;6.10;;
27558;SDS011;15002;52.028;5.670;2023-07-13T05:29:40;15.00;;;6.18;;
27558;SDS011;15002;52.028;5.670;2023-07-13T05:32:06;14.43;;;5.95;;
27558;SDS011;15002;52.028;5.670;2023-07-13T05:34:31;14.63;;;6.18;;
27558;SDS011;15002;52.028;5.670;2023-07-13T05:36:57;16.98;;;6.00;;
27558;SDS011;15002;52.028;5.670;2023-07-13T05:39:23;18.17;;;6.47;;
27558;SDS011;15002;52.028;5.670;2023-07-13T05:41:49;13.32;;;6.28;;
27558;SDS011;15002;52.028;5.670;2023-07-13T05:44:15;19.75;;;6.88;;
27558;SDS011;15002;52.028;5.670;2023-07-13T05:46:40;15.07;;;7.97;;
27558;SDS011;15002;52.028;5.670;2023-07-13T05:49:06;16.42;;;6.80;;
27558;SDS011;15002;52.028;5.670;2023-07-13T05:51:32;17.65;;;7.45;;
27558;SDS011;15002;52.028;5.670;2023-07-13T05:53:57;18.00;;;7.38;;
27558;SDS011;15002;52.028;5.670;2023-07-13T05:56:23;16.30;;;8.02;;
27558;SDS011;15002;52.028;5.670;2023-07-13T05:58:50;19.30;;;8.25;;
27558;SDS011;15002;52.028;5.670;2023-07-13T06:01:16;16.60;;;8.00;;
27558;SDS011;15002;52.028;5.670;2023-07-13T06:03:42;21.15;;;8.35;;
27558;SDS011;15002;52.028;5.670;2023-07-13T06:06:08;18.33;;;8.63;;
27558;SDS011;15002;52.028;5.670;2023-07-13T06:08:35;23.25;;;9.07;;
27558;SDS011;15002;52.028;5.670;2023-07-13T06:11:02;20.75;;;8.85;;
27558;SDS011;15002;52.028;5.670;2023-07-13T06:13:33;23.60;;;10.48;;
27558;SDS011;15002;52.028;5.670;2023-07-13T06:15:58;23.65;;;10.70;;
27558;SDS011;15002;52.028;5.670;2023-07-13T06:18:25;21.98;;;10.27;;
27558;SDS011;15002;52.028;5.670;2023-07-13T06:20:50;27.75;;;10.70;;
27558;SDS011;15002;52.028;5.670;2023-07-13T06:23:16;25.17;;;12.13;;
27558;SDS011;15002;52.028;5.670;2023-07-13T06:25:42;25.35;;;10.68;;
27558;SDS011;15002;52.028;5.670;2023-07-13T06:28:08;16.70;;;11.18;;
27558;SDS011;15002;52.028;5.670;2023-07-13T06:30:34;25.70;;;11.68;;
27558;SDS011;15002;52.028;5.670;2023-07-13T06:32:59;20.27;;;11.30;;
27558;SDS011;15002;52.028;5.670;2023-07-13T06:35:25;27.25;;;11.93;;
27558;SDS011;15002;52.028;5.670;2023-07-13T06:37:50;22.77;;;12.63;;
27558;SDS011;15002;52.028;5.670;2023-07-13T06:40:16;26.83;;;11.57;;
27558;SDS011;15002;52.028;5.670;2023-07-13T06:42:42;22.50;;;11.23;;
27558;SDS011;15002;52.028;5.670;2023-07-13T06:45:08;17.38;;;11.38;;
27558;SDS011;15002;52.028;5.670;2023-07-13T06:47:33;20.80;;;11.50;;
27558;SDS011;15002;52.028;5.670;2023-07-13T06:49:59;25.20;;;11.75;;
27558;SDS011;15002;52.028;5.670;2023-07-13T06:52:26;24.48;;;10.77;;
27558;SDS011;15002;52.028;5.670;2023-07-13T06:54:51;24.23;;;11.55;;
27558;SDS011;15002;52.028;5.670;2023-07-13T06:57:17;20.20;;;11.07;;
27558;SDS011;15002;52.028;5.670;2023-07-13T06:59:42;26.95;;;12.77;;
27558;SDS011;15002;52.028;5.670;2023-07-13T07:02:11;23.00;;;12.88;;
27558;SDS011;15002;52.028;5.670;2023-07-13T07:04:37;18.70;;;12.23;;
27558;SDS011;15002;52.028;5.670;2023-07-13T07:07:02;20.70;;;11.20;;
27558;SDS011;15002;52.028;5.670;2023-07-13T07:09:28;22.25;;;11.57;;
27558;SDS011;15002;52.028;5.670;2023-07-13T07:11:55;19.65;;;11.00;;
27558;SDS011;15002;52.028;5.670;2023-07-13T07:14:20;25.17;;;11.80;;
27558;SDS011;15002;52.028;5.670;2023-07-13T07:16:46;24.35;;;12.43;;
27558;SDS011;15002;52.028;5.670;2023-07-13T07:19:12;20.45;;;12.32;;
27558;SDS011;15002;52.028;5.670;2023-07-13T07:21:37;26.77;;;12.60;;
27558;SDS011;15002;52.028;5.670;2023-07-13T07:24:03;18.38;;;11.75;;
27558;SDS011;15002;52.028;5.670;2023-07-13T07:26:30;25.30;;;12.40;;
27558;SDS011;15002;52.028;5.670;2023-07-13T07:28:56;20.00;;;11.93;;
27558;SDS011;15002;52.028;5.670;2023-07-13T07:31:21;24.75;;;13.07;;
27558;SDS011;15002;52.028;5.670;2023-07-13T07:33:47;25.92;;;12.18;;
27558;SDS011;15002;52.028;5.670;2023-07-13T07:36:14;21.70;;;11.80;;
27558;SDS011;15002;52.028;5.670;2023-07-13T07:38:41;26.20;;;13.35;;
27558;SDS011;15002;52.028;5.670;2023-07-13T07:41:07;25.33;;;11.98;;
27558;SDS011;15002;52.028;5.670;2023-07-13T07:43:33;22.90;;;12.55;;
27558;SDS011;15002;52.028;5.670;2023-07-13T07:45:59;22.40;;;12.45;;
27558;SDS011;15002;52.028;5.670;2023-07-13T07:48:24;22.17;;;11.48;;
27558;SDS011;15002;52.028;5.670;2023-07-13T07:50:50;26.50;;;12.32;;
27558;SDS011;15002;52.028;5.670;2023-07-13T07:53:16;23.65;;;12.77;;
27558;SDS011;15002;52.028;5.670;2023-07-13T07:55:41;21.83;;;11.65;;
27558;SDS011;15002;52.028;5.670;2023-07-13T07:58:07;18.65;;;11.18;;
27558;SDS011;15002;52.028;5.670;2023-07-13T08:00:33;17.98;;;11.10;;
27558;SDS011;15002;52.028;5.670;2023-07-13T08:03:00;19.15;;;11.15;;
27558;SDS011;15002;52.028;5.670;2023-07-13T08:05:26;21.08;;;11.13;;
27558;SDS011;15002;52.028;5.670;2023-07-13T08:07:52;18.70;;;11.10;;
27558;SDS011;15002;52.028;5.670;2023-07-13T08:10:18;20.80;;;10.38;;
27558;SDS011;15002;52.028;5.670;2023-07-13T08:12:44;16.52;;;10.25;;
27558;SDS011;15002;52.028;5.670;2023-07-13T08:15:11;17.35;;;9.35;;
27558;SDS011;15002;52.028;5.670;2023-07-13T08:17:39;17.45;;;9.35;;
27558;SDS011;15002;52.028;5.670;2023-07-13T08:20:05;14.00;;;9.60;;
27558;SDS011;15002;52.028;5.670;2023-07-13T08:22:31;20.45;;;9.63;;
27558;SDS011;15002;52.028;5.670;2023-07-13T08:24:57;15.80;;;9.45;;
27558;SDS011;15002;52.028;5.670;2023-07-13T08:27:24;16.58;;;10.20;;
27558;SDS011;15002;52.028;5.670;2023-07-13T08:29:50;21.77;;;9.48;;
27558;SDS011;15002;52.028;5.670;2023-07-13T08:32:17;16.85;;;9.30;;
27558;SDS011;15002;52.028;5.670;2023-07-13T08:34:43;18.10;;;8.70;;
27558;SDS011;15002;52.028;5.670;2023-07-13T08:37:09;14.20;;;9.77;;
27558;SDS011;15002;52.028;5.670;2023-07-13T08:39:35;15.15;;;8.63;;
27558;SDS011;15002;52.028;5.670;2023-07-13T08:42:47;15.73;;;8.07;;
27558;SDS011;15002;52.028;5.670;2023-07-13T08:48:11;13.90;;;9.10;;
27558;SDS011;15002;52.028;5.670;2023-07-13T08:50:49;14.48;;;7.90;;
27558;SDS011;15002;52.028;5.670;2023-07-13T08:53:22;7.82;;;5.88;;
27558;SDS011;15002;52.028;5.670;2023-07-13T08:55:56;10.18;;;5.55;;
27558;SDS011;15002;52.028;5.670;2023-07-13T08:58:24;10.60;;;5.38;;
27558;SDS011;15002;52.028;5.670;2023-07-13T09:03:42;9.23;;;4.20;;
27558;SDS011;15002;52.028;5.670;2023-07-13T09:06:17;8.85;;;3.97;;
27558;SDS011;15002;52.028;5.670;2023-07-13T09:08:51;6.38;;;3.28;;
27558;SDS011;15002;52.028;5.670;2023-07-13T09:11:40;6.40;;;3.17;;
27558;SDS011;15002;52.028;5.670;2023-07-13T09:17:27;4.93;;;2.92;;
27558;SDS011;15002;52.028;5.670;2023-07-13T09:20:23;7.32;;;2.72;;
27558;SDS011;15002;52.028;5.670;2023-07-13T09:22:53;5.95;;;2.88;;
27558;SDS011;15002;52.028;5.670;2023-07-13T09:27:47;6.18;;;3.00;;
27558;SDS011;15002;52.028;5.670;2023-07-13T09:32:39;5.38;;;2.70;;
27558;SDS011;15002;52.028;5.670;2023-07-13T09:35:10;6.25;;;3.03;;
27558;SDS011;15002;52.028;5.670;2023-07-13T09:37:43;5.57;;;2.60;;
27558;SDS011;15002;52.028;5.670;2023-07-13T09:40:11;6.93;;;2.85;;
27558;SDS011;15002;52.028;5.670;2023-07-13T09:42:42;4.68;;;2.33;;
27558;SDS011;15002;52.028;5.670;2023-07-13T09:45:08;5.20;;;3.05;;
27558;SDS011;15002;52.028;5.670;2023-07-13T09:47:38;8.45;;;3.75;;
27558;SDS011;15002;52.028;5.670;2023-07-13T09:50:12;7.20;;;3.45;;
27558;SDS011;15002;52.028;5.670;2023-07-13T09:55:32;9.52;;;4.07;;
27558;SDS011;15002;52.028;5.670;2023-07-13T09:58:10;10.30;;;3.90;;
27558;SDS011;15002;52.028;5.670;2023-07-13T10:00:42;7.60;;;3.50;;
27558;SDS011;15002;52.028;5.670;2023-07-13T10:05:55;10.32;;;3.80;;
27558;SDS011;15002;52.028;5.670;2023-07-13T10:08:35;6.00;;;3.58;;
27558;SDS011;15002;52.028;5.670;2023-07-13T10:11:08;12.00;;;3.58;;
27558;SDS011;15002;52.028;5.670;2023-07-13T10:13:46;7.35;;;3.22;;
27558;SDS011;15002;52.028;5.670;2023-07-13T10:16:16;8.57;;;3.05;;
27558;SDS011;15002;52.028;5.670;2023-07-13T10:18:45;8.57;;;3.90;;
27558;SDS011;15002;52.028;5.670;2023-07-13T10:21:20;9.20;;;4.22;;
27558;SDS011;15002;52.028;5.670;2023-07-13T10:23:50;7.68;;;3.60;;
27558;SDS011;15002;52.028;5.670;2023-07-13T10:26:23;6.72;;;3.88;;
27558;SDS011;15002;52.028;5.670;2023-07-13T10:28:52;6.22;;;4.10;;
27558;SDS011;15002;52.028;5.670;2023-07-13T10:31:21;7.68;;;4.30;;
27558;SDS011;15002;52.028;5.670;2023-07-13T10:33:48;9.38;;;4.32;;
27558;SDS011;15002;52.028;5.670;2023-07-13T10:36:20;6.75;;;3.70;;
27558;SDS011;15002;52.028;5.670;2023-07-13T10:39:10;7.72;;;3.60;;
27558;SDS011;15002;52.028;5.670;2023-07-13T10:41:44;6.25;;;3.42;;
27558;SDS011;15002;52.028;5.670;2023-07-13T10:44:20;7.47;;;3.25;;
27558;SDS011;15002;52.028;5.670;2023-07-13T10:46:52;7.38;;;3.55;;
27558;SDS011;15002;52.028;5.670;2023-07-13T10:49:39;6.65;;;2.70;;
27558;SDS011;15002;52.028;5.670;2023-07-13T10:52:20;6.03;;;2.50;;
27558;SDS011;15002;52.028;5.670;2023-07-13T10:55:30;8.45;;;2.65;;
27558;SDS011;15002;52.028;5.670;2023-07-13T10:58:11;5.82;;;2.38;;
27558;SDS011;15002;52.028;5.670;2023-07-13T11:01:03;5.70;;;2.78;;
27558;SDS011;15002;52.028;5.670;2023-07-13T11:08:37;3.40;;;2.13;;
27558;SDS011;15002;52.028;5.670;2023-07-13T11:11:04;4.28;;;2.50;;
27558;SDS011;15002;52.028;5.670;2023-07-13T11:19:07;6.18;;;3.10;;
27558;SDS011;15002;52.028;5.670;2023-07-13T11:21:30;5.32;;;3.28;;
27558;SDS011;15002;52.028;5.670;2023-07-13T11:26:42;5.97;;;2.65;;
27558;SDS011;15002;52.028;5.670;2023-07-13T11:32:10;5.47;;;2.80;;
27558;SDS011;15002;52.028;5.670;2023-07-13T11:34:51;3.60;;;2.58;;
27558;SDS011;15002;52.028;5.670;2023-07-13T11:37:19;4.68;;;2.45;;
27558;SDS011;15002;52.028;5.670;2023-07-13T11:39:45;4.43;;;2.10;;
27558;SDS011;15002;52.028;5.670;2023-07-13T11:42:13;5.60;;;2.28;;
27558;SDS011;15002;52.028;5.670;2023-07-13T11:44:42;8.07;;;2.60;;
27558;SDS011;15002;52.028;5.670;2023-07-13T11:47:14;5.05;;;2.60;;
27558;SDS011;15002;52.028;5.670;2023-07-13T11:49:48;4.28;;;2.17;;
27558;SDS011;15002;52.028;5.670;2023-07-13T11:52:18;4.68;;;2.70;;
27558;SDS011;15002;52.028;5.670;2023-07-13T11:54:48;6.17;;;2.80;;
27558;SDS011;15002;52.028;5.670;2023-07-13T11:59:58;5.22;;;2.38;;
27558;SDS011;15002;52.028;5.670;2023-07-13T12:02:45;4.53;;;2.08;;
27558;SDS011;15002;52.028;5.670;2023-07-13T12:05:14;3.83;;;2.33;;
27558;SDS011;15002;52.028;5.670;2023-07-13T12:07:45;5.90;;;2.38;;
27558;SDS011;15002;52.028;5.670;2023-07-13T12:10:20;9.40;;;3.28;;
27558;SDS011;15002;52.028;5.670;2023-07-13T12:15:23;7.85;;;3.30;;
27558;SDS011;15002;52.028;5.670;2023-07-13T12:18:19;7.00;;;3.60;;
27558;SDS011;15002;52.028;5.670;2023-07-13T12:20:49;7.15;;;3.42;;
27558;SDS011;15002;52.028;5.670;2023-07-13T12:23:22;5.72;;;3.55;;
27558;SDS011;15002;52.028;5.670;2023-07-13T12:25:51;5.10;;;3.03;;
27558;SDS011;15002;52.028;5.670;2023-07-13T12:28:37;5.03;;;2.78;;
27558;SDS011;15002;52.028;5.670;2023-07-13T12:31:04;7.03;;;2.35;;
27558;SDS011;15002;52.028;5.670;2023-07-13T12:33:32;4.18;;;2.38;;
27558;SDS011;15002;52.028;5.670;2023-07-13T12:36:00;4.78;;;2.65;;
27558;SDS011;15002;52.028;5.670;2023-07-13T12:38:30;5.03;;;2.67;;
27558;SDS011;15002;52.028;5.670;2023-07-13T12:40:56;3.92;;;2.50;;
27558;SDS011;15002;52.028;5.670;2023-07-13T12:43:23;3.72;;;2.38;;
27558;SDS011;15002;52.028;5.670;2023-07-13T12:48:29;5.07;;;2.90;;
27558;SDS011;15002;52.028;5.670;2023-07-13T12:50:55;5.60;;;2.88;;
27558;SDS011;15002;52.028;5.670;2023-07-13T12:53:28;8.20;;;3.83;;
27558;SDS011;15002;52.028;5.670;2023-07-13T12:55:59;7.45;;;3.00;;
27558;SDS011;15002;52.028;5.670;2023-07-13T12:58:29;5.03;;;3.00;;
27558;SDS011;15002;52.028;5.670;2023-07-13T13:00:55;7.68;;;3.20;;
27558;SDS011;15002;52.028;5.670;2023-07-13T13:06:05;9.20;;;3.40;;
27558;SDS011;15002;52.028;5.670;2023-07-13T13:08:32;5.32;;;3.00;;
27558;SDS011;15002;52.028;5.670;2023-07-13T13:10:59;5.18;;;2.88;;
27558;SDS011;15002;52.028;5.670;2023-07-13T13:13:25;5.95;;;2.47;;
27558;SDS011;15002;52.028;5.670;2023-07-13T13:15:51;7.15;;;2.53;;
27558;SDS011;15002;52.028;5.670;2023-07-13T13:18:18;2.67;;;2.10;;
27558;SDS011;15002;52.028;5.670;2023-07-13T13:20:50;5.13;;;2.47;;
27558;SDS011;15002;52.028;5.670;2023-07-13T13:23:18;3.78;;;2.30;;
27558;SDS011;15002;52.028;5.670;2023-07-13T13:25:46;4.90;;;2.35;;
27558;SDS011;15002;52.028;5.670;2023-07-13T13:28:16;5.03;;;2.50;;
27558;SDS011;15002;52.028;5.670;2023-07-13T13:30:44;5.18;;;2.67;;
27558;SDS011;15002;52.028;5.670;2023-07-13T13:33:12;3.83;;;2.55;;
27558;SDS011;15002;52.028;5.670;2023-07-13T13:38:12;5.20;;;3.10;;
27558;SDS011;15002;52.028;5.670;2023-07-13T13:40:39;3.53;;;2.00;;
27558;SDS011;15002;52.028;5.670;2023-07-13T13:45:44;4.45;;;2.35;;
27558;SDS011;15002;52.028;5.670;2023-07-13T13:48:20;6.45;;;2.42;;
27558;SDS011;15002;52.028;5.670;2023-07-13T13:50:55;4.50;;;2.22;;
27558;SDS011;15002;52.028;5.670;2023-07-13T13:53:21;2.72;;;2.45;;
27558;SDS011;15002;52.028;5.670;2023-07-13T13:55:48;5.70;;;2.20;;
27558;SDS011;15002;52.028;5.670;2023-07-13T13:58:14;5.82;;;2.30;;
27558;SDS011;15002;52.028;5.670;2023-07-13T14:00:40;4.60;;;2.42;;
27558;SDS011;15002;52.028;5.670;2023-07-13T14:03:16;5.22;;;2.40;;
27558;SDS011;15002;52.028;5.670;2023-07-13T14:05:43;4.78;;;2.50;;
27558;SDS011;15002;52.028;5.670;2023-07-13T14:08:17;4.57;;;2.58;;
27558;SDS011;15002;52.028;5.670;2023-07-13T14:10:44;3.90;;;2.53;;
27558;SDS011;15002;52.028;5.670;2023-07-13T14:13:19;3.75;;;2.10;;
27558;SDS011;15002;52.028;5.670;2023-07-13T14:15:51;4.55;;;2.08;;
27558;SDS011;15002;52.028;5.670;2023-07-13T14:18:17;5.55;;;2.10;;
27558;SDS011;15002;52.028;5.670;2023-07-13T14:20:43;3.80;;;2.25;;
27558;SDS011;15002;52.028;5.670;2023-07-13T14:23:11;3.97;;;2.30;;
27558;SDS011;15002;52.028;5.670;2023-07-13T14:25:38;2.83;;;2.17;;
27558;SDS011;15002;52.028;5.670;2023-07-13T14:28:13;4.55;;;2.17;;
27558;SDS011;15002;52.028;5.670;2023-07-13T14:30:40;4.45;;;2.17;;
27558;SDS011;15002;52.028;5.670;2023-07-13T14:33:10;4.70;;;2.15;;
27558;SDS011;15002;52.028;5.670;2023-07-13T14:35:36;3.05;;;2.35;;
27558;SDS011;15002;52.028;5.670;2023-07-13T14:38:03;4.93;;;2.20;;
27558;SDS011;15002;52.028;5.670;2023-07-13T14:40:30;3.33;;;2.00;;
27558;SDS011;15002;52.028;5.670;2023-07-13T14:42:56;3.20;;;2.08;;
27558;SDS011;15002;52.028;5.670;2023-07-13T14:45:23;3.58;;;2.40;;
27558;SDS011;15002;52.028;5.670;2023-07-13T14:47:49;3.60;;;2.30;;
27558;SDS011;15002;52.028;5.670;2023-07-13T14:50:16;3.35;;;2.20;;
27558;SDS011;15002;52.028;5.670;2023-07-13T14:52:42;3.50;;;2.28;;
27558;SDS011;15002;52.028;5.670;2023-07-13T14:55:15;5.20;;;2.80;;
27558;SDS011;15002;52.028;5.670;2023-07-13T14:57:43;3.58;;;2.17;;
27558;SDS011;15002;52.028;5.670;2023-07-13T15:00:18;4.30;;;2.30;;
27558;SDS011;15002;52.028;5.670;2023-07-13T15:02:49;3.22;;;1.88;;
27558;SDS011;15002;52.028;5.670;2023-07-13T15:05:18;2.78;;;1.85;;
27558;SDS011;15002;52.028;5.670;2023-07-13T15:07:48;4.20;;;2.10;;
27558;SDS011;15002;52.028;5.670;2023-07-13T15:10:18;4.85;;;2.63;;
27558;SDS011;15002;52.028;5.670;2023-07-13T15:12:46;3.28;;;2.17;;
27558;SDS011;15002;52.028;5.670;2023-07-13T15:15:12;3.25;;;2.10;;
27558;SDS011;15002;52.028;5.670;2023-07-13T15:17:39;5.30;;;2.22;;
27558;SDS011;15002;52.028;5.670;2023-07-13T15:20:26;3.97;;;1.90;;
27558;SDS011;15002;52.028;5.670;2023-07-13T15:22:54;4.10;;;2.20;;
27558;SDS011;15002;52.028;5.670;2023-07-13T15:25:21;3.05;;;1.88;;
27558;SDS011;15002;52.028;5.670;2023-07-13T15:27:51;4.85;;;2.17;;
27558;SDS011;15002;52.028;5.670;2023-07-13T15:30:18;4.65;;;1.90;;
27558;SDS011;15002;52.028;5.670;2023-07-13T15:32:45;4.30;;;2.30;;
27558;SDS011;15002;52.028;5.670;2023-07-13T15:35:21;6.75;;;2.63;;
27558;SDS011;15002;52.028;5.670;2023-07-13T15:37:50;4.28;;;2.50;;
27558;SDS011;15002;52.028;5.670;2023-07-13T15:40:16;3.60;;;2.47;;